sensor_id;sensor_type;location;lat;lon;timestamp;pressure;altitude;pressure_sealevel;temperature;humidity
5238;BME280;2639;49.700;7.962;2023-09-30T07:20:37;99819.38;;;13.46;100.00
5238;BME280;2639;49.700;7.962;2023-09-30T07:21:43;99812.75;;;13.50;100.00
5238;BME280;2639;49.700;7.962;2023-09-30T07:22:46;99817.53;;;13.56;100.00
5238;BME280;2639;49.700;7.962;2023-09-30T07:24:08;99816.22;;;13.61;100.00
5238;BME280;2639;49.700;7.962;2023-09-30T07:25:09;99815.44;;;13.62;100.00
5238;BME280;2639;49.700;7.962;2023-09-30T07:26:12;99827.66;;;13.64;100.00
5238;BME280;2639;49.700;7.962;2023-09-30T07:27:15;99838.25;;;13.67;100.00
5238;BME280;2639;49.700;7.962;2023-09-30T07:28:28;99829.72;;;13.68;100.00
5238;BME280;2639;49.700;7.962;2023-09-30T07:29:31;99830.97;;;13.74;100.00
5238;BME280;2639;49.700;7.962;2023-09-30T07:30:32;99821.94;;;13.79;100.00
5238;BME280;2639;49.700;7.962;2023-09-30T07:31:36;99826.69;;;13.84;100.00
5238;BME280;2639;49.700;7.962;2023-09-30T07:32:39;99831.41;;;13.90;100.00
5238;BME280;2639;49.700;7.962;2023-09-30T07:33:41;99831.16;;;13.97;100.00
5238;BME280;2639;49.700;7.962;2023-09-30T07:34:44;99836.91;;;14.05;100.00
5238;BME280;2639;49.700;7.962;2023-09-30T07:35:48;99834.91;;;14.13;100.00
5238;BME280;2639;49.700;7.962;2023-09-30T07:36:51;99836.44;;;14.21;100.00
5238;BME280;2639;49.700;7.962;2023-09-30T07:37:54;99827.47;;;14.27;100.00
5238;BME280;2639;49.700;7.962;2023-09-30T07:38:56;99839.28;;;14.36;100.00
5238;BME280;2639;49.700;7.962;2023-09-30T07:39:59;99833.72;;;14.41;100.00
5238;BME280;2639;49.700;7.962;2023-09-30T07:41:02;99827.44;;;14.49;100.00
5238;BME280;2639;49.700;7.962;2023-09-30T07:42:08;99829.72;;;14.57;100.00
5238;BME280;2639;49.700;7.962;2023-09-30T07:43:10;99832.88;;;14.64;100.00
5238;BME280;2639;49.700;7.962;2023-09-30T07:44:14;99834.25;;;14.71;100.00
5238;BME280;2639;49.700;7.962;2023-09-30T07:45:16;99838.13;;;14.76;100.00
5238;BME280;2639;49.700;7.962;2023-09-30T07:46:20;99837.53;;;14.80;100.00
5238;BME280;2639;49.700;7.962;2023-09-30T07:47:22;99834.28;;;14.83;100.00
5238;BME280;2639;49.700;7.962;2023-09-30T07:48:25;99836.22;;;14.85;100.00
5238;BME280;2639;49.700;7.962;2023-09-30T07:49:27;99833.31;;;14.92;100.00
5238;BME280;2639;49.700;7.962;2023-09-30T07:50:30;99822.38;;;14.97;100.00
5238;BME280;2639;49.700;7.962;2023-09-30T07:51:33;99810.03;;;15.04;100.00
5238;BME280;2639;49.700;7.962;2023-09-30T07:52:37;99813.19;;;15.12;100.00
5238;BME280;2639;49.700;7.962;2023-09-30T07:53:41;99809.38;;;15.19;100.00
5238;BME280;2639;49.700;7.962;2023-09-30T07:54:44;99803.72;;;15.24;100.00
5238;BME280;2639;49.700;7.962;2023-09-30T07:55:46;99805.97;;;15.31;100.00
5238;BME280;2639;49.700;7.962;2023-09-30T07:56:48;99813.31;;;15.37;100.00
5238;BME280;2639;49.700;7.962;2023-09-30T07:57:50;99812.75;;;15.41;100.00
5238;BME280;2639;49.700;7.962;2023-09-30T07:58:53;99819.94;;;15.45;100.00
5238;BME280;2639;49.700;7.962;2023-09-30T07:59:55;99823.78;;;15.50;100.00
5238;BME280;2639;49.700;7.962;2023-09-30T08:00:58;99822.50;;;15.57;100.00
5238;BME280;2639;49.700;7.962;2023-09-30T08:02:01;99815.19;;;15.63;100.00
5238;BME280;2639;49.700;7.962;2023-09-30T08:03:06;99819.00;;;15.68;100.00
5238;BME280;2639;49.700;7.962;2023-09-30T08:04:08;99821.28;;;15.75;100.00
5238;BME280;2639;49.700;7.962;2023-09-30T08:05:11;99818.31;;;15.83;100.00
5238;BME280;2639;49.700;7.962;2023-09-30T08:06:13;99813.47;;;15.87;100.00
5238;BME280;2639;49.700;7.962;2023-09-30T08:07:18;99815.63;;;15.93;100.00
5238;BME280;2639;49.700;7.962;2023-09-30T08:08:20;99811.66;;;15.98;100.00
5238;BME280;2639;49.700;7.962;2023-09-30T08:09:23;99812.97;;;16.05;100.00
5238;BME280;2639;49.700;7.962;2023-09-30T08:10:25;99812.63;;;16.12;99.63
5238;BME280;2639;49.700;7.962;2023-09-30T08:11:28;99824.31;;;16.18;98.72
5238;BME280;2639;49.700;7.962;2023-09-30T08:12:32;99816.16;;;16.26;98.36
5238;BME280;2639;49.700;7.962;2023-09-30T08:13:35;99812.31;;;16.32;97.50
5238;BME280;2639;49.700;7.962;2023-09-30T08:14:37;99820.59;;;16.40;97.04
5238;BME280;2639;49.700;7.962;2023-09-30T08:15:40;99825.41;;;16.47;95.47
5238;BME280;2639;49.700;7.962;2023-09-30T08:16:42;99828.56;;;16.55;95.00
5238;BME280;2639;49.700;7.962;2023-09-30T08:17:45;99826.47;;;16.62;92.98
5238;BME280;2639;49.700;7.962;2023-09-30T08:18:48;99825.22;;;16.69;92.02
5238;BME280;2639;49.700;7.962;2023-09-30T08:19:51;99827.53;;;16.78;90.92
5238;BME280;2639;49.700;7.962;2023-09-30T08:20:53;99822.88;;;16.86;89.77
5238;BME280;2639;49.700;7.962;2023-09-30T08:21:56;99826.78;;;16.92;88.46
5238;BME280;2639;49.700;7.962;2023-09-30T08:23:00;99834.25;;;17.01;88.69
5238;BME280;2639;49.700;7.962;2023-09-30T08:24:04;99833.09;;;17.09;88.42
5238;BME280;2639;49.700;7.962;2023-09-30T08:25:06;99836.19;;;17.17;87.61
5238;BME280;2639;49.700;7.962;2023-09-30T08:26:08;99831.41;;;17.23;86.31
5238;BME280;2639;49.700;7.962;2023-09-30T08:27:11;99835.38;;;17.31;85.94
5238;BME280;2639;49.700;7.962;2023-09-30T08:28:14;99840.09;;;17.37;84.00
5238;BME280;2639;49.700;7.962;2023-09-30T08:29:17;99841.41;;;17.43;83.89
5238;BME280;2639;49.700;7.962;2023-09-30T08:30:19;99832.03;;;17.45;82.99
5238;BME280;2639;49.700;7.962;2023-09-30T08:31:25;99833.81;;;17.46;81.64
5238;BME280;2639;49.700;7.962;2023-09-30T08:32:27;99833.22;;;17.51;81.33
5238;BME280;2639;49.700;7.962;2023-09-30T08:33:29;99819.81;;;17.58;80.59
5238;BME280;2639;49.700;7.962;2023-09-30T08:34:32;99822.00;;;17.65;80.41
5238;BME280;2639;49.700;7.962;2023-09-30T08:35:35;99816.00;;;17.66;78.59
5238;BME280;2639;49.700;7.962;2023-09-30T08:36:39;99812.78;;;17.70;78.60
5238;BME280;2639;49.700;7.962;2023-09-30T08:37:41;99821.59;;;17.72;76.71
5238;BME280;2639;49.700;7.962;2023-09-30T08:38:45;99826.19;;;17.76;75.91
5238;BME280;2639;49.700;7.962;2023-09-30T08:39:47;99821.88;;;17.77;74.29
5238;BME280;2639;49.700;7.962;2023-09-30T08:40:52;99823.47;;;17.75;73.66
5238;BME280;2639;49.700;7.962;2023-09-30T08:41:54;99827.97;;;17.77;74.03
5238;BME280;2639;49.700;7.962;2023-09-30T08:42:57;99825.00;;;17.84;74.40
5238;BME280;2639;49.700;7.962;2023-09-30T08:44:01;99827.00;;;17.88;73.78
5238;BME280;2639;49.700;7.962;2023-09-30T08:45:08;99824.19;;;17.99;74.20
5238;BME280;2639;49.700;7.962;2023-09-30T08:46:12;99822.78;;;18.04;73.38
5238;BME280;2639;49.700;7.962;2023-09-30T08:47:16;99829.97;;;18.08;73.25
5238;BME280;2639;49.700;7.962;2023-09-30T08:48:18;99825.66;;;18.08;73.66
5238;BME280;2639;49.700;7.962;2023-09-30T08:49:24;99819.84;;;18.13;73.86
5238;BME280;2639;49.700;7.962;2023-09-30T08:50:27;99821.91;;;18.18;74.24
5238;BME280;2639;49.700;7.962;2023-09-30T08:51:31;99824.09;;;18.25;74.29
5238;BME280;2639;49.700;7.962;2023-09-30T08:52:33;99820.06;;;18.30;74.85
5238;BME280;2639;49.700;7.962;2023-09-30T08:53:41;99823.66;;;18.33;75.21
5238;BME280;2639;49.700;7.962;2023-09-30T08:54:45;99830.94;;;18.38;74.88
5238;BME280;2639;49.700;7.962;2023-09-30T08:55:52;99834.19;;;18.49;75.00
5238;BME280;2639;49.700;7.962;2023-09-30T08:56:55;99827.75;;;18.57;73.29
5238;BME280;2639;49.700;7.962;2023-09-30T08:57:58;99832.25;;;18.60;72.18
5238;BME280;2639;49.700;7.962;2023-09-30T08:59:03;99831.53;;;18.62;73.01
5238;BME280;2639;49.700;7.962;2023-09-30T09:00:07;99834.94;;;18.61;72.80
5238;BME280;2639;49.700;7.962;2023-09-30T09:01:13;99827.94;;;18.60;72.35
5238;BME280;2639;49.700;7.962;2023-09-30T09:02:16;99831.69;;;18.65;73.43
5238;BME280;2639;49.700;7.962;2023-09-30T09:03:19;99835.13;;;18.64;72.77
5238;BME280;2639;49.700;7.962;2023-09-30T09:04:21;99837.72;;;18.64;72.35
5238;BME280;2639;49.700;7.962;2023-09-30T09:05:24;99838.00;;;18.69;72.20
5238;BME280;2639;49.700;7.962;2023-09-30T09:06:26;99832.25;;;18.75;72.93
5238;BME280;2639;49.700;7.962;2023-09-30T09:07:29;99828.06;;;18.77;72.37
5238;BME280;2639;49.700;7.962;2023-09-30T09:08:31;99830.50;;;18.88;72.67
5238;BME280;2639;49.700;7.962;2023-09-30T09:09:34;99836.25;;;18.98;72.73
5238;BME280;2639;49.700;7.962;2023-09-30T09:10:53;99832.69;;;19.10;71.88
5238;BME280;2639;49.700;7.962;2023-09-30T09:11:57;99833.22;;;19.20;71.88
5238;BME280;2639;49.700;7.962;2023-09-30T09:13:02;99836.81;;;19.22;70.59
5238;BME280;2639;49.700;7.962;2023-09-30T09:14:06;99836.16;;;19.26;70.95
5238;BME280;2639;49.700;7.962;2023-09-30T09:15:20;99835.69;;;19.33;70.45
5238;BME280;2639;49.700;7.962;2023-09-30T09:16:24;99834.44;;;19.41;70.39
5238;BME280;2639;49.700;7.962;2023-09-30T09:17:39;99836.22;;;19.42;70.35
5238;BME280;2639;49.700;7.962;2023-09-30T09:18:43;99834.28;;;19.38;69.54
5238;BME280;2639;49.700;7.962;2023-09-30T09:19:58;99838.28;;;19.33;70.11
5238;BME280;2639;49.700;7.962;2023-09-30T09:21:08;99829.78;;;19.21;69.18
5238;BME280;2639;49.700;7.962;2023-09-30T09:22:11;99819.22;;;19.18;69.78
5238;BME280;2639;49.700;7.962;2023-09-30T09:23:15;99821.00;;;19.19;70.96
5238;BME280;2639;49.700;7.962;2023-09-30T09:24:26;99825.59;;;19.08;69.93
5238;BME280;2639;49.700;7.962;2023-09-30T09:25:39;99827.28;;;19.07;70.17
5238;BME280;2639;49.700;7.962;2023-09-30T09:26:43;99823.59;;;19.04;70.55
5238;BME280;2639;49.700;7.962;2023-09-30T09:27:47;99825.13;;;19.00;70.23
5238;BME280;2639;49.700;7.962;2023-09-30T09:28:48;99825.13;;;19.00;70.91
5238;BME280;2639;49.700;7.962;2023-09-30T09:29:51;99820.56;;;19.11;71.08
5238;BME280;2639;49.700;7.962;2023-09-30T09:30:53;99819.22;;;19.18;69.95
5238;BME280;2639;49.700;7.962;2023-09-30T09:32:07;99819.22;;;19.18;69.84
5238;BME280;2639;49.700;7.962;2023-09-30T09:33:09;99819.72;;;19.12;69.28
5238;BME280;2639;49.700;7.962;2023-09-30T09:34:13;99817.31;;;19.00;69.00
5238;BME280;2639;49.700;7.962;2023-09-30T09:35:19;99821.34;;;18.95;69.49
5238;BME280;2639;49.700;7.962;2023-09-30T09:36:38;99823.69;;;18.90;70.24
5238;BME280;2639;49.700;7.962;2023-09-30T09:37:41;99831.59;;;18.92;70.94
5238;BME280;2639;49.700;7.962;2023-09-30T09:38:44;99822.81;;;18.90;70.78
5238;BME280;2639;49.700;7.962;2023-09-30T09:39:52;99831.94;;;18.98;71.69
5238;BME280;2639;49.700;7.962;2023-09-30T09:40:59;99828.91;;;19.05;71.22
5238;BME280;2639;49.700;7.962;2023-09-30T09:42:02;99829.88;;;19.07;71.12
5238;BME280;2639;49.700;7.962;2023-09-30T09:43:04;99828.00;;;19.05;70.00
5238;BME280;2639;49.700;7.962;2023-09-30T09:44:08;99832.47;;;19.07;71.05
5238;BME280;2639;49.700;7.962;2023-09-30T09:45:11;99831.78;;;19.10;70.59
5238;BME280;2639;49.700;7.962;2023-09-30T09:46:13;99832.03;;;19.14;69.63
5238;BME280;2639;49.700;7.962;2023-09-30T09:47:19;99837.50;;;19.19;69.40
5238;BME280;2639;49.700;7.962;2023-09-30T09:48:23;99831.78;;;19.10;69.10
5238;BME280;2639;49.700;7.962;2023-09-30T09:49:30;99829.53;;;19.01;69.55
5238;BME280;2639;49.700;7.962;2023-09-30T09:50:34;99834.13;;;19.05;70.34
5238;BME280;2639;49.700;7.962;2023-09-30T09:51:40;99824.03;;;19.11;69.77
5238;BME280;2639;49.700;7.962;2023-09-30T09:52:42;99829.41;;;19.14;69.58
5238;BME280;2639;49.700;7.962;2023-09-30T09:53:48;99832.28;;;19.19;69.36
5238;BME280;2639;49.700;7.962;2023-09-30T09:54:51;99821.00;;;19.19;69.12
5238;BME280;2639;49.700;7.962;2023-09-30T09:55:56;99828.91;;;19.20;69.65
5238;BME280;2639;49.700;7.962;2023-09-30T09:57:00;99816.16;;;19.25;69.26
5238;BME280;2639;49.700;7.962;2023-09-30T09:58:05;99819.13;;;19.31;70.34
5238;BME280;2639;49.700;7.962;2023-09-30T09:59:09;99816.84;;;19.37;70.01
5238;BME280;2639;49.700;7.962;2023-09-30T10:00:17;99811.25;;;19.46;69.76
5238;BME280;2639;49.700;7.962;2023-09-30T10:01:20;99809.44;;;19.60;69.86
5238;BME280;2639;49.700;7.962;2023-09-30T10:02:23;99808.69;;;19.77;69.94
5238;BME280;2639;49.700;7.962;2023-09-30T10:03:26;99805.28;;;19.78;67.11
5238;BME280;2639;49.700;7.962;2023-09-30T10:04:30;99803.31;;;19.74;67.49
5238;BME280;2639;49.700;7.962;2023-09-30T10:05:32;99801.28;;;19.68;66.85
5238;BME280;2639;49.700;7.962;2023-09-30T10:06:35;99808.78;;;19.64;67.38
5238;BME280;2639;49.700;7.962;2023-09-30T10:07:44;99805.69;;;19.54;67.55
5238;BME280;2639;49.700;7.962;2023-09-30T10:08:49;99806.31;;;19.50;67.00
5238;BME280;2639;49.700;7.962;2023-09-30T10:09:53;99804.50;;;19.49;67.94
5238;BME280;2639;49.700;7.962;2023-09-30T10:11:01;99794.00;;;19.48;68.36
5238;BME280;2639;49.700;7.962;2023-09-30T10:12:04;99803.19;;;19.41;68.29
5238;BME280;2639;49.700;7.962;2023-09-30T10:14:45;99807.19;;;19.20;68.28
5238;BME280;2639;49.700;7.962;2023-09-30T10:15:47;99801.78;;;19.17;69.09
5238;BME280;2639;49.700;7.962;2023-09-30T10:16:53;99802.22;;;19.09;69.03
5238;BME280;2639;49.700;7.962;2023-09-30T10:17:57;99796.69;;;19.03;69.08
5238;BME280;2639;49.700;7.962;2023-09-30T10:19:08;99804.13;;;18.97;69.29
5238;BME280;2639;49.700;7.962;2023-09-30T10:20:11;99800.16;;;18.89;68.88
5238;BME280;2639;49.700;7.962;2023-09-30T10:21:13;99811.22;;;18.85;69.89
5238;BME280;2639;49.700;7.962;2023-09-30T10:22:21;99807.53;;;18.81;69.49
5238;BME280;2639;49.700;7.962;2023-09-30T10:23:24;99805.81;;;18.82;69.38
5238;BME280;2639;49.700;7.962;2023-09-30T10:24:28;99801.59;;;18.84;69.91
5238;BME280;2639;49.700;7.962;2023-09-30T10:25:34;99801.81;;;18.87;69.64
5238;BME280;2639;49.700;7.962;2023-09-30T10:26:38;99800.09;;;18.87;70.27
5238;BME280;2639;49.700;7.962;2023-09-30T10:27:41;99795.50;;;18.83;68.40
5238;BME280;2639;49.700;7.962;2023-09-30T10:28:46;99800.72;;;18.83;69.12
5238;BME280;2639;49.700;7.962;2023-09-30T10:29:54;99791.47;;;18.88;69.21
5238;BME280;2639;49.700;7.962;2023-09-30T10:31:08;99794.72;;;18.99;69.78
5238;BME280;2639;49.700;7.962;2023-09-30T10:32:10;99789.88;;;19.05;69.37
5238;BME280;2639;49.700;7.962;2023-09-30T10:33:13;99795.41;;;19.11;69.39
5238;BME280;2639;49.700;7.962;2023-09-30T10:34:20;99794.41;;;19.24;69.20
5238;BME280;2639;49.700;7.962;2023-09-30T10:35:42;99793.69;;;19.27;69.13
5238;BME280;2639;49.700;7.962;2023-09-30T10:36:46;99782.72;;;19.32;69.58
5238;BME280;2639;49.700;7.962;2023-09-30T10:37:49;99789.00;;;19.36;68.63
5238;BME280;2639;49.700;7.962;2023-09-30T10:38:51;99782.19;;;19.38;68.11
5238;BME280;2639;49.700;7.962;2023-09-30T10:39:56;99786.47;;;19.38;67.23
5238;BME280;2639;49.700;7.962;2023-09-30T10:41:00;99785.78;;;19.40;66.82
5238;BME280;2639;49.700;7.962;2023-09-30T10:42:05;99787.91;;;19.32;67.30
5238;BME280;2639;49.700;7.962;2023-09-30T10:43:28;99776.25;;;19.26;67.57
5238;BME280;2639;49.700;7.962;2023-09-30T10:44:32;99779.53;;;19.22;67.79
5238;BME280;2639;49.700;7.962;2023-09-30T10:45:43;99781.13;;;19.20;66.98
5238;BME280;2639;49.700;7.962;2023-09-30T10:46:46;99777.72;;;19.21;67.74
5238;BME280;2639;49.700;7.962;2023-09-30T10:47:49;99783.09;;;19.24;67.35
5238;BME280;2639;49.700;7.962;2023-09-30T10:48:51;99783.44;;;19.30;67.86
5238;BME280;2639;49.700;7.962;2023-09-30T10:49:54;99784.59;;;19.35;67.80
5238;BME280;2639;49.700;7.962;2023-09-30T10:50:57;99787.56;;;19.41;66.84
5238;BME280;2639;49.700;7.962;2023-09-30T10:52:00;99782.03;;;19.51;67.39
5238;BME280;2639;49.700;7.962;2023-09-30T10:53:04;99783.22;;;19.57;66.73
5238;BME280;2639;49.700;7.962;2023-09-30T10:54:09;99778.31;;;19.63;65.67
5238;BME280;2639;49.700;7.962;2023-09-30T10:55:11;99780.28;;;19.67;65.97
5238;BME280;2639;49.700;7.962;2023-09-30T10:56:20;99779.31;;;19.65;65.58
5238;BME280;2639;49.700;7.962;2023-09-30T10:57:27;99784.06;;;19.72;66.45
5238;BME280;2639;49.700;7.962;2023-09-30T10:58:41;99774.00;;;19.78;65.88
5238;BME280;2639;49.700;7.962;2023-09-30T10:59:43;99769.81;;;19.82;65.35
5238;BME280;2639;49.700;7.962;2023-09-30T11:00:52;99772.69;;;19.86;64.44
5238;BME280;2639;49.700;7.962;2023-09-30T11:01:55;99772.28;;;19.95;63.61
5238;BME280;2639;49.700;7.962;2023-09-30T11:02:58;99770.91;;;20.02;63.76
5238;BME280;2639;49.700;7.962;2023-09-30T11:04:04;99774.03;;;20.11;64.57
5238;BME280;2639;49.700;7.962;2023-09-30T11:05:10;99772.06;;;20.07;63.68
5238;BME280;2639;49.700;7.962;2023-09-30T11:06:13;99775.50;;;20.06;63.84
5238;BME280;2639;49.700;7.962;2023-09-30T11:07:22;99777.13;;;20.04;62.24
5238;BME280;2639;49.700;7.962;2023-09-30T11:08:28;99779.22;;;20.11;63.86
5238;BME280;2639;49.700;7.962;2023-09-30T11:09:33;99793.41;;;20.16;63.56
5238;BME280;2639;49.700;7.962;2023-09-30T11:10:36;99785.59;;;20.16;63.42
5238;BME280;2639;49.700;7.962;2023-09-30T11:11:39;99786.06;;;20.09;62.75
5238;BME280;2639;49.700;7.962;2023-09-30T11:12:56;99788.50;;;19.89;63.17
5238;BME280;2639;49.700;7.962;2023-09-30T11:13:58;99795.00;;;19.81;64.29
5238;BME280;2639;49.700;7.962;2023-09-30T11:15:02;99794.69;;;19.75;63.87
5238;BME280;2639;49.700;7.962;2023-09-30T11:16:05;99799.72;;;19.72;64.50
5238;BME280;2639;49.700;7.962;2023-09-30T11:17:09;99797.53;;;19.65;64.08
5238;BME280;2639;49.700;7.962;2023-09-30T11:18:13;99796.41;;;19.60;64.96
5238;BME280;2639;49.700;7.962;2023-09-30T11:19:16;99789.47;;;19.60;64.71
5238;BME280;2639;49.700;7.962;2023-09-30T11:20:18;99795.56;;;19.61;64.42
5238;BME280;2639;49.700;7.962;2023-09-30T11:21:22;99797.72;;;19.68;65.20
5238;BME280;2639;49.700;7.962;2023-09-30T11:22:24;99795.78;;;19.64;64.15
5238;BME280;2639;49.700;7.962;2023-09-30T11:23:29;99795.22;;;19.69;64.26
5238;BME280;2639;49.700;7.962;2023-09-30T11:24:35;99796.13;;;19.70;64.16
5238;BME280;2639;49.700;7.962;2023-09-30T11:25:39;99796.13;;;19.70;63.99
5238;BME280;2639;49.700;7.962;2023-09-30T11:26:41;99797.72;;;19.68;63.88
5238;BME280;2639;49.700;7.962;2023-09-30T11:27:45;99801.13;;;19.67;64.14
5238;BME280;2639;49.700;7.962;2023-09-30T11:28:49;99802.03;;;19.67;64.19
5238;BME280;2639;49.700;7.962;2023-09-30T11:29:52;99806.53;;;19.70;64.69
5238;BME280;2639;49.700;7.962;2023-09-30T11:30:55;99800.53;;;19.71;64.44
5238;BME280;2639;49.700;7.962;2023-09-30T11:31:59;99803.66;;;19.65;64.67
5238;BME280;2639;49.700;7.962;2023-09-30T11:33:03;99800.63;;;19.58;64.80
5238;BME280;2639;49.700;7.962;2023-09-30T11:34:06;99802.25;;;19.55;64.77
5238;BME280;2639;49.700;7.962;2023-09-30T11:35:09;99799.47;;;19.52;63.63
5238;BME280;2639;49.700;7.962;2023-09-30T11:36:13;99801.44;;;19.57;64.51
5238;BME280;2639;49.700;7.962;2023-09-30T11:37:16;99799.34;;;19.66;64.65
5238;BME280;2639;49.700;7.962;2023-09-30T11:38:19;99796.47;;;19.76;64.15
5238;BME280;2639;49.700;7.962;2023-09-30T11:39:22;99795.34;;;19.87;64.15
5238;BME280;2639;49.700;7.962;2023-09-30T11:40:25;99794.03;;;19.95;64.21
5238;BME280;2639;49.700;7.962;2023-09-30T11:41:33;99790.28;;;19.90;62.48
5238;BME280;2639;49.700;7.962;2023-09-30T11:42:36;99794.03;;;19.95;63.08
5238;BME280;2639;49.700;7.962;2023-09-30T11:43:59;99787.03;;;19.94;63.42
5238;BME280;2639;49.700;7.962;2023-09-30T11:45:02;99783.81;;;19.99;63.88
5238;BME280;2639;49.700;7.962;2023-09-30T11:46:08;99791.88;;;20.03;63.03
5238;BME280;2639;49.700;7.962;2023-09-30T11:47:10;99787.38;;;20.01;63.36
5238;BME280;2639;49.700;7.962;2023-09-30T11:48:17;99787.38;;;20.01;62.08
5238;BME280;2639;49.700;7.962;2023-09-30T11:49:25;99785.25;;;19.93;62.03
5238;BME280;2639;49.700;7.962;2023-09-30T11:50:44;99774.66;;;19.90;61.30
5238;BME280;2639;49.700;7.962;2023-09-30T11:51:47;99778.41;;;19.95;61.41
5238;BME280;2639;49.700;7.962;2023-09-30T11:52:50;99773.69;;;20.05;61.02
5238;BME280;2639;49.700;7.962;2023-09-30T11:53:52;99774.03;;;20.11;60.92
5238;BME280;2639;49.700;7.962;2023-09-30T11:54:56;99775.50;;;20.22;61.63
5238;BME280;2639;49.700;7.962;2023-09-30T11:55:59;99775.16;;;20.32;60.33
5238;BME280;2639;49.700;7.962;2023-09-30T11:57:04;99770.59;;;20.45;60.76
5238;BME280;2639;49.700;7.962;2023-09-30T11:58:06;99770.75;;;20.48;60.20
5238;BME280;2639;49.700;7.962;2023-09-30T11:59:12;99763.41;;;20.41;59.04
5238;BME280;2639;49.700;7.962;2023-09-30T12:00:14;99763.88;;;20.50;60.29
5238;BME280;2639;49.700;7.962;2023-09-30T12:01:19;99770.34;;;20.56;59.40
5238;BME280;2639;49.700;7.962;2023-09-30T12:02:26;99766.91;;;20.57;59.70
5238;BME280;2639;49.700;7.962;2023-09-30T12:03:30;99763.72;;;20.63;59.29
5238;BME280;2639;49.700;7.962;2023-09-30T12:04:32;99767.63;;;20.71;60.05
5238;BME280;2639;49.700;7.962;2023-09-30T12:05:36;99767.75;;;20.74;59.44
5238;BME280;2639;49.700;7.962;2023-09-30T12:06:38;99762.34;;;20.88;59.96
5238;BME280;2639;49.700;7.962;2023-09-30T12:07:40;99766.41;;;20.99;60.20
5238;BME280;2639;49.700;7.962;2023-09-30T12:08:44;99761.63;;;21.08;60.19
5238;BME280;2639;49.700;7.962;2023-09-30T12:09:46;99763.41;;;21.09;58.57
5238;BME280;2639;49.700;7.962;2023-09-30T12:10:49;99756.72;;;21.14;58.31
5238;BME280;2639;49.700;7.962;2023-09-30T12:11:52;99756.19;;;21.21;58.30
5238;BME280;2639;49.700;7.962;2023-09-30T12:12:55;99753.72;;;21.25;58.34
5238;BME280;2639;49.700;7.962;2023-09-30T12:13:57;99744.16;;;21.25;58.32
5238;BME280;2639;49.700;7.962;2023-09-30T12:15:01;99744.91;;;21.22;57.61
5238;BME280;2639;49.700;7.962;2023-09-30T12:16:04;99741.31;;;21.20;57.96
5238;BME280;2639;49.700;7.962;2023-09-30T12:17:07;99740.53;;;21.21;57.44
5238;BME280;2639;49.700;7.962;2023-09-30T12:18:14;99738.88;;;21.23;57.72
5238;BME280;2639;49.700;7.962;2023-09-30T12:19:18;99737.06;;;21.22;57.02
5238;BME280;2639;49.700;7.962;2023-09-30T12:20:21;99733.88;;;21.28;57.87
5238;BME280;2639;49.700;7.962;2023-09-30T12:21:23;99736.84;;;21.36;58.16
5238;BME280;2639;49.700;7.962;2023-09-30T12:22:26;99732.13;;;21.47;57.32
5238;BME280;2639;49.700;7.962;2023-09-30T12:23:28;99728.06;;;21.52;57.81
5238;BME280;2639;49.700;7.962;2023-09-30T12:24:31;99724.13;;;21.61;57.26
5238;BME280;2639;49.700;7.962;2023-09-30T12:25:36;99712.03;;;21.63;56.73
5238;BME280;2639;49.700;7.962;2023-09-30T12:26:39;99719.00;;;21.63;56.88
5238;BME280;2639;49.700;7.962;2023-09-30T12:27:42;99725.16;;;21.65;57.25
5238;BME280;2639;49.700;7.962;2023-09-30T12:28:49;99722.88;;;21.53;56.25
5238;BME280;2639;49.700;7.962;2023-09-30T12:29:52;99726.44;;;21.37;55.34
5238;BME280;2639;49.700;7.962;2023-09-30T12:31:58;99721.22;;;21.37;57.50
5238;BME280;2639;49.700;7.962;2023-09-30T12:33:03;99727.13;;;21.51;57.42
5238;BME280;2639;49.700;7.962;2023-09-30T12:34:06;99722.19;;;21.57;55.77
5238;BME280;2639;49.700;7.962;2023-09-30T12:35:10;99719.22;;;21.68;54.43
5238;BME280;2639;49.700;7.962;2023-09-30T12:36:12;99716.03;;;21.75;54.61
5238;BME280;2639;49.700;7.962;2023-09-30T12:37:15;99719.00;;;21.82;54.17
5238;BME280;2639;49.700;7.962;2023-09-30T12:38:17;99716.81;;;21.92;53.82
5238;BME280;2639;49.700;7.962;2023-09-30T12:39:19;99721.59;;;22.02;54.14
5238;BME280;2639;49.700;7.962;2023-09-30T12:40:27;99721.88;;;22.08;53.75
5238;BME280;2639;49.700;7.962;2023-09-30T12:41:31;99716.78;;;22.11;53.67
5238;BME280;2639;49.700;7.962;2023-09-30T12:42:34;99714.59;;;22.01;52.75
5238;BME280;2639;49.700;7.962;2023-09-30T12:43:37;99721.81;;;22.06;53.47
5238;BME280;2639;49.700;7.962;2023-09-30T12:44:39;99722.78;;;22.09;53.14
5238;BME280;2639;49.700;7.962;2023-09-30T12:45:43;99717.22;;;22.01;52.65
5238;BME280;2639;49.700;7.962;2023-09-30T12:46:46;99714.41;;;21.96;53.36
5238;BME280;2639;49.700;7.962;2023-09-30T12:47:49;99720.44;;;21.95;54.57
5238;BME280;2639;49.700;7.962;2023-09-30T12:48:54;99717.34;;;21.84;52.82
5238;BME280;2639;49.700;7.962;2023-09-30T12:50:00;99726.63;;;21.78;52.82
5238;BME280;2639;49.700;7.962;2023-09-30T12:51:02;99722.16;;;21.75;53.73
5238;BME280;2639;49.700;7.962;2023-09-30T12:52:07;99716.94;;;21.75;54.43
5238;BME280;2639;49.700;7.962;2023-09-30T12:53:09;99721.41;;;21.78;53.27
5238;BME280;2639;49.700;7.962;2023-09-30T12:54:12;99713.47;;;21.76;53.18
5238;BME280;2639;49.700;7.962;2023-09-30T12:55:16;99718.13;;;21.82;54.01
5238;BME280;2639;49.700;7.962;2023-09-30T12:56:18;99728.69;;;21.85;54.79
5238;BME280;2639;49.700;7.962;2023-09-30T12:57:41;99725.88;;;21.80;53.52
5238;BME280;2639;49.700;7.962;2023-09-30T12:58:44;99732.41;;;21.71;53.70
5238;BME280;2639;49.700;7.962;2023-09-30T12:59:49;99727.09;;;21.69;53.61
5238;BME280;2639;49.700;7.962;2023-09-30T13:00:52;99729.88;;;21.72;53.98
5238;BME280;2639;49.700;7.962;2023-09-30T13:02:13;99726.22;;;21.69;52.96
5238;BME280;2639;49.700;7.962;2023-09-30T13:03:16;99713.75;;;21.63;54.19
5238;BME280;2639;49.700;7.962;2023-09-30T13:04:18;99719.03;;;21.64;54.12
5238;BME280;2639;49.700;7.962;2023-09-30T13:05:21;99713.81;;;21.64;54.47
5238;BME280;2639;49.700;7.962;2023-09-30T13:06:23;99726.88;;;21.64;54.95
5238;BME280;2639;49.700;7.962;2023-09-30T13:07:26;99719.88;;;21.63;54.41
5238;BME280;2639;49.700;7.962;2023-09-30T13:08:27;99725.91;;;21.62;53.58
5238;BME280;2639;49.700;7.962;2023-09-30T13:09:35;99733.63;;;21.59;53.33
5238;BME280;2639;49.700;7.962;2023-09-30T13:10:38;99730.88;;;21.56;52.88
5238;BME280;2639;49.700;7.962;2023-09-30T13:11:41;99727.00;;;21.48;52.25
5238;BME280;2639;49.700;7.962;2023-09-30T13:12:43;99733.59;;;21.40;51.88